createdAt,value
2022-09-23T00:01:00.658Z,36.93
2022-09-23T00:03:30.140Z,31.80
2022-09-23T00:06:02.000Z,32.90
2022-09-23T00:08:29.872Z,35.80
2022-09-23T00:10:57.925Z,39.27
2022-09-23T00:13:26.767Z,40.67
2022-09-23T00:15:54.235Z,39.87
2022-09-23T00:18:21.801Z,39.00
2022-09-23T00:20:49.445Z,35.83
2022-09-23T00:23:16.958Z,42.07
2022-09-23T00:25:44.453Z,38.90
2022-09-23T00:28:11.943Z,42.07
2022-09-23T00:30:44.691Z,36.17
2022-09-23T00:33:12.208Z,34.03
2022-09-23T00:35:39.690Z,45.13
2022-09-23T00:38:07.136Z,36.17
2022-09-23T00:40:36.210Z,38.43
2022-09-23T00:43:03.694Z,50.87
2022-09-23T00:45:32.293Z,43.93
2022-09-23T00:48:04.999Z,40.00
2022-09-23T00:50:36.062Z,40.40
2022-09-23T00:53:07.869Z,34.17
2022-09-23T00:55:39.331Z,38.37
2022-09-23T00:58:11.039Z,37.57
2022-09-23T01:00:38.942Z,31.43
2022-09-23T01:03:09.382Z,35.77
2022-09-23T01:05:38.520Z,34.13
2022-09-23T01:08:06.584Z,40.40
2022-09-23T01:10:41.949Z,40.87
2022-09-23T01:13:18.252Z,46.33
2022-09-23T01:15:50.292Z,49.47
2022-09-23T01:18:29.661Z,57.87
2022-09-23T01:21:03.502Z,50.50
2022-09-23T01:23:55.108Z,55.10
2022-09-23T01:26:42.839Z,45.70
2022-09-23T01:29:29.782Z,45.20
2022-09-23T01:32:03.037Z,49.63
2022-09-23T01:34:36.935Z,50.73
2022-09-23T01:37:12.022Z,46.00
2022-09-23T01:39:45.359Z,46.83
2022-09-23T01:42:18.639Z,52.70
2022-09-23T01:44:49.538Z,54.50
2022-09-23T01:47:23.707Z,56.80
2022-09-23T01:49:56.016Z,56.97
2022-09-23T01:52:29.287Z,52.60
2022-09-23T01:55:02.104Z,51.17
2022-09-23T01:57:33.282Z,48.43
2022-09-23T02:00:11.149Z,49.03
2022-09-23T02:02:49.855Z,48.37
2022-09-23T02:05:23.008Z,50.00
2022-09-23T02:07:54.277Z,47.77
2022-09-23T02:10:26.358Z,48.20
2022-09-23T02:12:59.095Z,49.13
2022-09-23T02:15:33.716Z,49.63
2022-09-23T02:18:08.682Z,50.20
2022-09-23T02:20:39.718Z,54.43
2022-09-23T02:23:13.036Z,48.60
2022-09-23T02:25:55.983Z,48.40
2022-09-23T02:28:31.908Z,39.07
2022-09-23T02:31:08.518Z,45.60
2022-09-23T02:33:40.216Z,44.63
2022-09-23T02:36:13.435Z,43.77
2022-09-23T02:38:46.351Z,54.30
2022-09-23T02:41:18.307Z,44.07
2022-09-23T02:43:52.227Z,47.20
2022-09-23T02:46:20.295Z,40.90
2022-09-23T02:48:55.041Z,41.77
2022-09-23T02:51:25.297Z,47.70
2022-09-23T02:53:55.688Z,44.50
2022-09-23T02:56:23.362Z,45.57
2022-09-23T02:58:54.057Z,45.83
2022-09-23T03:01:34.988Z,49.97
2022-09-23T03:04:14.703Z,46.27
2022-09-23T03:06:51.912Z,44.47
2022-09-23T03:09:23.283Z,45.13
2022-09-23T03:11:56.831Z,46.33
2022-09-23T03:14:31.679Z,38.17
2022-09-23T03:17:04.201Z,48.00
2022-09-23T03:19:41.358Z,36.73
2022-09-23T03:22:13.337Z,38.87
2022-09-23T03:24:44.758Z,46.17
2022-09-23T03:27:17.732Z,43.10
2022-09-23T03:29:47.656Z,43.30
2022-09-23T03:32:18.255Z,53.67
2022-09-23T03:34:50.337Z,45.73
2022-09-23T03:37:22.564Z,47.20
2022-09-23T03:39:55.068Z,84.60
2022-09-23T03:42:25.935Z,57.17
2022-09-23T03:44:56.367Z,46.00
2022-09-23T03:47:26.261Z,52.63
2022-09-23T03:49:56.700Z,83.23
2022-09-23T03:52:25.544Z,56.80
2022-09-23T03:54:53.439Z,55.57
2022-09-23T03:57:22.433Z,56.37
2022-09-23T03:59:50.473Z,46.77
2022-09-23T04:02:18.814Z,43.17
2022-09-23T04:04:46.900Z,41.80
2022-09-23T04:07:15.992Z,41.53
2022-09-23T04:09:43.637Z,41.90
2022-09-23T04:12:14.692Z,47.00
2022-09-23T04:14:42.259Z,38.10
2022-09-23T04:17:10.190Z,47.83
2022-09-23T04:19:37.971Z,46.60
2022-09-23T04:22:06.117Z,51.77
2022-09-23T04:24:35.385Z,42.60
2022-09-23T04:27:03.297Z,43.83
2022-09-23T04:29:30.859Z,43.30
2022-09-23T04:31:58.712Z,48.90
2022-09-23T04:34:26.456Z,52.03
2022-09-23T04:36:53.946Z,60.50
2022-09-23T04:39:21.439Z,50.03
2022-09-23T04:41:50.262Z,57.07
2022-09-23T04:44:17.756Z,51.50
2022-09-23T04:46:48.239Z,59.30
2022-09-23T04:49:16.573Z,57.17
2022-09-23T04:51:44.091Z,50.40
2022-09-23T04:54:12.678Z,43.80
2022-09-23T04:56:40.829Z,47.03
2022-09-23T04:59:09.822Z,54.43
2022-09-23T05:01:38.339Z,49.63
2022-09-23T05:04:08.542Z,54.83
2022-09-23T05:06:36.932Z,51.03
2022-09-23T05:09:07.468Z,46.83
2022-09-23T05:11:35.663Z,53.43
2022-09-23T05:14:03.346Z,52.00
2022-09-23T05:16:32.254Z,50.03
2022-09-23T05:18:59.951Z,81.00
2022-09-23T05:21:28.865Z,67.60
2022-09-23T05:24:00.283Z,61.47
2022-09-23T05:26:29.411Z,58.60
2022-09-23T05:28:57.240Z,59.40
2022-09-23T05:31:26.289Z,58.07
2022-09-23T05:33:57.901Z,59.30
2022-09-23T05:36:26.104Z,68.10
2022-09-23T05:38:54.593Z,89.17
2022-09-23T05:41:23.391Z,59.63
2022-09-23T05:43:51.532Z,147.57
2022-09-23T05:46:20.873Z,210.40
2022-09-23T05:48:49.009Z,104.20
2022-09-23T05:51:20.105Z,35.03
2022-09-23T05:53:48.747Z,36.83
2022-09-23T05:56:18.238Z,67.60
2022-09-23T05:58:46.120Z,37.93
2022-09-23T06:01:15.654Z,90.20
2022-09-23T06:03:43.130Z,34.80
2022-09-23T06:06:14.461Z,23.92
2022-09-23T06:08:43.616Z,21.27
2022-09-23T06:11:12.287Z,20.33
2022-09-23T06:13:40.375Z,16.73
2022-09-23T06:16:09.074Z,16.15
2022-09-23T06:18:36.819Z,13.73
2022-09-23T06:21:05.244Z,15.90
2022-09-23T06:23:33.074Z,11.75
2022-09-23T06:26:02.443Z,11.95
2022-09-23T06:28:32.157Z,10.75
2022-09-23T06:31:00.388Z,15.32
2022-09-23T06:33:35.854Z,15.63
2022-09-23T06:36:06.706Z,17.30
2022-09-23T06:38:34.543Z,23.15
2022-09-23T06:41:04.057Z,11.38
2022-09-23T06:43:32.193Z,13.38
2022-09-23T06:46:00.997Z,14.27
2022-09-23T06:48:29.482Z,13.02
2022-09-23T06:51:02.364Z,15.15
2022-09-23T06:53:32.107Z,11.30
2022-09-23T06:56:00.485Z,93.47
2022-09-23T06:58:29.788Z,8.68
2022-09-23T07:01:02.325Z,8.93
2022-09-23T07:03:30.877Z,9.90
2022-09-23T07:05:59.135Z,7.40
2022-09-23T07:08:28.095Z,7.75
2022-09-23T07:10:56.661Z,7.70
2022-09-23T07:13:24.613Z,8.52
2022-09-23T07:15:55.024Z,7.93
2022-09-23T07:18:24.045Z,9.07
2022-09-23T07:20:51.951Z,9.23
2022-09-23T07:23:19.649Z,16.15
2022-09-23T07:25:50.267Z,21.88
2022-09-23T07:28:18.889Z,20.88
2022-09-23T07:30:57.177Z,15.30
2022-09-23T07:33:32.489Z,17.83
2022-09-23T07:36:00.873Z,7.93
2022-09-23T07:38:30.261Z,12.00
2022-09-23T07:41:02.708Z,15.95
2022-09-23T07:43:31.806Z,14.15
2022-09-23T07:46:02.172Z,47.88
2022-09-23T07:48:34.457Z,45.38
2022-09-23T07:51:07.616Z,14.25
2022-09-23T07:53:35.681Z,8.45
2022-09-23T07:56:06.447Z,14.25
2022-09-23T07:58:35.554Z,6.05
2022-09-23T08:01:05.177Z,22.90
2022-09-23T08:03:35.000Z,13.68
2022-09-23T08:06:10.441Z,6.65
2022-09-23T08:08:40.463Z,6.93
2022-09-23T08:11:11.133Z,9.75
2022-09-23T08:13:38.994Z,38.17
2022-09-23T08:16:07.255Z,5.10
2022-09-23T08:18:36.606Z,13.38
2022-09-23T08:21:04.713Z,12.10
2022-09-23T08:23:33.550Z,18.75
2022-09-23T08:26:03.080Z,8.60
2022-09-23T08:28:31.958Z,12.23
2022-09-23T08:30:59.473Z,4.70
2022-09-23T08:33:27.097Z,16.35
2022-09-23T08:36:00.537Z,16.40
2022-09-23T08:38:28.674Z,13.88
2022-09-23T08:41:06.370Z,7.18
2022-09-23T08:43:36.857Z,5.45
2022-09-23T08:46:07.267Z,46.13
2022-09-23T08:48:38.424Z,22.77
2022-09-23T08:51:13.576Z,11.38
2022-09-23T08:53:42.195Z,7.35
2022-09-23T08:56:15.716Z,15.38
2022-09-23T08:58:52.820Z,6.45
2022-09-23T09:01:26.412Z,7.82
2022-09-23T09:03:55.972Z,5.95
2022-09-23T09:06:30.898Z,4.53
2022-09-23T09:09:02.199Z,4.88
2022-09-23T09:11:36.814Z,5.18
2022-09-23T09:14:15.289Z,106.15
2022-09-23T09:16:59.947Z,5.43
2022-09-23T09:19:51.867Z,7.90
2022-09-23T09:22:25.985Z,51.67
2022-09-23T09:24:57.375Z,48.50
2022-09-23T09:27:25.080Z,32.40
2022-09-23T09:29:56.401Z,9.18
2022-09-23T09:32:38.160Z,5.50
2022-09-23T09:35:10.224Z,5.40
2022-09-23T09:37:46.772Z,24.55
2022-09-23T09:40:16.279Z,4.95
2022-09-23T09:42:48.287Z,10.38
2022-09-23T09:45:24.079Z,64.78
2022-09-23T09:48:00.897Z,5.63
2022-09-23T09:50:47.065Z,5.22
2022-09-23T09:53:21.766Z,7.18
2022-09-23T09:56:04.710Z,8.55
2022-09-23T09:58:43.602Z,4.80
2022-09-23T10:01:19.537Z,6.25
2022-09-23T10:03:47.799Z,5.75
2022-09-23T10:06:19.356Z,5.35
2022-09-23T10:09:16.864Z,4.93
2022-09-23T10:12:03.772Z,5.03
2022-09-23T10:14:31.459Z,5.30
2022-09-23T10:17:05.322Z,6.55
2022-09-23T10:19:35.354Z,5.50
2022-09-23T10:22:06.232Z,5.07
2022-09-23T10:24:36.567Z,5.60
2022-09-23T10:27:08.543Z,5.47
2022-09-23T10:29:40.697Z,4.97
2022-09-23T10:32:27.346Z,6.50
2022-09-23T10:34:58.048Z,5.10
2022-09-23T10:37:38.418Z,5.22
2022-09-23T10:40:44.941Z,5.70
2022-09-23T10:43:39.067Z,4.80
2022-09-23T10:46:27.293Z,4.45
2022-09-23T10:49:12.207Z,8.60
2022-09-23T10:51:50.253Z,3.78
2022-09-23T10:54:27.292Z,5.38
2022-09-23T10:56:59.738Z,9.48
2022-09-23T10:59:43.481Z,5.45
2022-09-23T11:02:35.789Z,10.27
2022-09-23T11:05:27.245Z,6.40
2022-09-23T11:08:06.163Z,35.58
2022-09-23T11:10:52.038Z,122.75
2022-09-23T11:13:35.555Z,12.02
2022-09-23T11:16:12.345Z,7.72
2022-09-23T11:19:00.277Z,5.28
2022-09-23T11:21:44.143Z,33.28
2022-09-23T11:24:39.249Z,11.55
2022-09-23T11:27:20.124Z,16.45
2022-09-23T11:30:01.704Z,4.50
2022-09-23T11:32:46.996Z,13.07
2022-09-23T11:35:20.429Z,22.45
2022-09-23T11:37:52.335Z,7.57
2022-09-23T11:40:24.454Z,5.15
2022-09-23T11:42:58.104Z,7.63
2022-09-23T11:45:31.900Z,5.32
2022-09-23T11:48:04.187Z,7.50
2022-09-23T11:50:37.337Z,17.08
2022-09-23T11:53:09.796Z,4.82
2022-09-23T11:55:54.599Z,73.93
2022-09-23T11:58:27.118Z,15.32
2022-09-23T12:01:02.027Z,20.23
2022-09-23T12:03:44.429Z,47.65
2022-09-23T12:06:16.010Z,5.63
2022-09-23T12:08:43.539Z,6.28
2022-09-23T12:11:26.007Z,5.00
2022-09-23T12:14:02.939Z,6.80
2022-09-23T12:16:58.991Z,4.75
2022-09-23T12:20:10.287Z,5.57
2022-09-23T12:22:52.651Z,5.13
2022-09-23T12:25:36.630Z,4.15
2022-09-23T12:28:07.944Z,7.90
2022-09-23T12:30:38.141Z,5.35
2022-09-23T12:33:17.710Z,4.90
2022-09-23T12:35:47.072Z,5.82
2022-09-23T12:38:19.306Z,5.65
2022-09-23T12:40:47.558Z,4.95
2022-09-23T12:43:21.018Z,5.65
2022-09-23T12:45:49.192Z,4.85
2022-09-23T12:48:45.035Z,5.13
2022-09-23T12:51:18.618Z,4.00
2022-09-23T12:53:58.272Z,4.50
2022-09-23T12:56:29.736Z,5.13
2022-09-23T12:59:21.631Z,5.22
2022-09-23T13:01:49.248Z,5.28
2022-09-23T13:04:52.049Z,5.68
2022-09-23T13:07:24.782Z,4.63
2022-09-23T13:09:56.518Z,4.97
2022-09-23T13:12:29.390Z,7.72
2022-09-23T13:15:00.649Z,5.68
2022-09-23T13:17:33.387Z,5.40
2022-09-23T13:20:27.337Z,5.07
2022-09-23T13:23:16.824Z,22.27
2022-09-23T13:25:44.876Z,6.20
2022-09-23T13:28:27.156Z,6.57
2022-09-23T13:30:55.220Z,6.63
2022-09-23T13:33:29.611Z,8.23
2022-09-23T13:36:04.049Z,5.20
2022-09-23T13:38:33.937Z,4.85
2022-09-23T13:41:04.617Z,5.13
2022-09-23T13:43:40.968Z,5.65
2022-09-23T13:46:13.915Z,4.68
2022-09-23T13:48:45.369Z,6.28
2022-09-23T13:51:21.901Z,5.18
2022-09-23T13:53:54.520Z,5.20
2022-09-23T13:56:23.168Z,4.53
2022-09-23T13:58:50.742Z,5.75
2022-09-23T14:01:24.210Z,6.60
2022-09-23T14:03:52.238Z,5.63
2022-09-23T14:06:21.175Z,7.22
2022-09-23T14:08:50.688Z,5.32
2022-09-23T14:11:20.455Z,5.03
2022-09-23T14:13:50.923Z,4.22
2022-09-23T14:16:19.568Z,4.60
2022-09-23T14:18:49.512Z,5.75
2022-09-23T14:21:30.269Z,4.90
2022-09-23T14:23:57.863Z,5.03
2022-09-23T14:26:26.985Z,5.85
2022-09-23T14:28:55.003Z,5.90
2022-09-23T14:31:24.034Z,5.10
2022-09-23T14:33:51.724Z,5.55
2022-09-23T14:36:36.550Z,5.07
2022-09-23T14:39:07.993Z,5.30
2022-09-23T14:41:39.118Z,6.07
2022-09-23T14:44:08.843Z,5.13
2022-09-23T14:46:38.923Z,5.40
2022-09-23T14:49:16.590Z,5.47
2022-09-23T14:51:50.320Z,5.20
2022-09-23T14:54:33.592Z,4.93
2022-09-23T14:57:02.235Z,4.70
2022-09-23T14:59:35.588Z,5.68
2022-09-23T15:02:03.468Z,5.28
2022-09-23T15:04:34.880Z,5.38
2022-09-23T15:07:16.533Z,5.45
2022-09-23T15:09:46.457Z,5.45
2022-09-23T15:12:16.185Z,5.90
2022-09-23T15:14:46.846Z,4.38
2022-09-23T15:17:32.493Z,8.98
2022-09-23T15:20:03.320Z,4.93
2022-09-23T15:22:30.807Z,4.78
2022-09-23T15:25:17.078Z,6.55
2022-09-23T15:27:57.521Z,4.85
2022-09-23T15:30:25.086Z,5.03
2022-09-23T15:32:52.930Z,6.40
2022-09-23T15:35:22.555Z,5.10
2022-09-23T15:37:51.451Z,4.25
2022-09-23T15:40:23.876Z,3.72
2022-09-23T15:42:53.327Z,3.55
2022-09-23T15:45:27.185Z,3.75
2022-09-23T15:47:55.714Z,3.53
2022-09-23T15:50:23.267Z,3.47
2022-09-23T15:52:50.757Z,4.35
2022-09-23T15:55:22.874Z,4.38
2022-09-23T15:57:50.643Z,3.95
2022-09-23T16:00:18.430Z,4.57
2022-09-23T16:02:48.516Z,3.25
2022-09-23T16:05:20.615Z,4.05
2022-09-23T16:07:48.246Z,3.45
2022-09-23T16:10:16.077Z,3.78
2022-09-23T16:12:45.055Z,4.22
2022-09-23T16:15:15.892Z,3.40
2022-09-23T16:17:44.229Z,2.88
2022-09-23T16:20:12.225Z,3.22
2022-09-23T16:22:40.074Z,3.78
2022-09-23T16:25:12.281Z,4.05
2022-09-23T16:27:40.746Z,5.80
2022-09-23T16:30:11.476Z,3.85
2022-09-23T16:32:39.037Z,4.43
2022-09-23T16:35:08.341Z,4.65
2022-09-23T16:37:36.095Z,4.50
2022-09-23T16:40:04.669Z,10.73
2022-09-23T16:42:32.168Z,17.15
2022-09-23T16:44:59.654Z,17.42
2022-09-23T16:47:28.785Z,23.95
2022-09-23T16:49:56.270Z,13.82
2022-09-23T16:52:23.764Z,10.65
2022-09-23T16:54:51.232Z,9.90
2022-09-23T16:57:18.750Z,14.45
2022-09-23T17:00:03.862Z,19.45
2022-09-23T17:03:04.676Z,15.80
2022-09-23T17:05:32.164Z,14.70
2022-09-23T17:08:00.111Z,13.40
2022-09-23T17:10:27.592Z,13.10
2022-09-23T17:12:55.124Z,15.60
2022-09-23T17:15:22.708Z,18.50
2022-09-23T17:17:51.532Z,10.80
2022-09-23T17:20:20.033Z,7.82
2022-09-23T17:22:47.519Z,11.02
2022-09-23T17:25:15.761Z,6.57
2022-09-23T17:27:43.247Z,7.00
2022-09-23T17:30:11.691Z,9.85
2022-09-23T17:32:39.169Z,12.00
2022-09-23T17:35:09.787Z,14.68
2022-09-23T17:37:37.863Z,21.15
2022-09-23T17:40:06.517Z,18.35
2022-09-23T17:42:34.388Z,13.20
2022-09-23T17:45:02.176Z,17.65
2022-09-23T17:47:32.444Z,12.55
2022-09-23T17:50:00.888Z,15.07
2022-09-23T17:52:29.674Z,114.57
2022-09-23T17:54:57.124Z,451.05
2022-09-23T17:57:24.589Z,535.40
2022-09-23T17:59:53.607Z,67.97
2022-09-23T18:02:22.492Z,50.05
2022-09-23T18:04:50.009Z,50.50
2022-09-23T18:07:17.728Z,26.37
2022-09-23T18:09:46.509Z,33.70
2022-09-23T18:12:14.692Z,26.60
2022-09-23T18:14:42.173Z,20.17
2022-09-23T18:17:09.967Z,15.03
2022-09-23T18:19:37.494Z,13.07
2022-09-23T18:22:04.948Z,14.18
2022-09-23T18:24:37.838Z,15.23
2022-09-23T18:27:07.357Z,16.20
2022-09-23T18:29:35.462Z,19.37
2022-09-23T18:32:03.722Z,19.03
2022-09-23T18:34:31.218Z,19.90
2022-09-23T18:36:58.716Z,19.67
2022-09-23T18:39:26.322Z,20.60
2022-09-23T18:41:54.801Z,17.87
2022-09-23T18:44:24.195Z,22.30
2022-09-23T18:46:51.830Z,15.90
2022-09-23T18:49:36.656Z,15.43
2022-09-23T18:52:04.180Z,14.07
2022-09-23T18:54:31.665Z,76.27
2022-09-23T18:56:59.541Z,351.53
2022-09-23T18:59:29.711Z,218.97
2022-09-23T19:01:57.848Z,160.33
2022-09-23T19:04:27.506Z,85.47
2022-09-23T19:06:56.511Z,85.30
2022-09-23T19:09:24.315Z,40.17
2022-09-23T19:11:52.584Z,21.37
2022-09-23T19:14:20.393Z,19.80
2022-09-23T19:16:50.593Z,17.23
2022-09-23T19:19:18.105Z,15.27
2022-09-23T19:21:45.804Z,24.60
2022-09-23T19:24:15.776Z,29.67
2022-09-23T19:26:44.063Z,22.53
2022-09-23T19:29:15.204Z,19.87
2022-09-23T19:31:43.391Z,25.20
2022-09-23T19:34:15.797Z,24.33
2022-09-23T19:36:44.713Z,18.40
2022-09-23T19:39:17.111Z,17.70
2022-09-23T19:41:44.634Z,20.00
2022-09-23T19:44:12.170Z,22.77
2022-09-23T19:46:42.809Z,18.87
2022-09-23T19:49:11.025Z,16.47
2022-09-23T19:51:40.139Z,20.07
2022-09-23T19:54:08.948Z,10.30
2022-09-23T19:56:38.489Z,11.87
2022-09-23T19:59:09.113Z,12.10
2022-09-23T20:01:36.732Z,15.63
2022-09-23T20:04:05.587Z,18.63
2022-09-23T20:06:34.838Z,25.23
2022-09-23T20:09:03.720Z,16.97
2022-09-23T20:11:32.382Z,22.13
2022-09-23T20:14:03.736Z,17.40
2022-09-23T20:16:34.092Z,21.73
2022-09-23T20:19:02.826Z,14.43
2022-09-23T20:21:30.656Z,11.97
2022-09-23T20:23:58.637Z,10.93
2022-09-23T20:26:45.174Z,10.27
2022-09-23T20:29:12.842Z,10.03
2022-09-23T20:31:41.321Z,10.80
2022-09-23T20:34:10.412Z,11.97
2022-09-23T20:36:39.465Z,14.70
2022-09-23T20:39:07.118Z,17.57
2022-09-23T20:41:38.285Z,15.57
2022-09-23T20:44:07.809Z,13.77
2022-09-23T20:46:35.923Z,10.20
2022-09-23T20:49:04.424Z,11.43
2022-09-23T20:51:33.779Z,13.83
2022-09-23T20:54:01.668Z,15.63
2022-09-23T20:56:29.610Z,16.57
2022-09-23T20:59:01.358Z,19.80
2022-09-23T21:01:29.152Z,18.83
2022-09-23T21:03:56.737Z,21.80
2022-09-23T21:06:26.115Z,22.73
2022-09-23T21:08:54.508Z,22.67
2022-09-23T21:11:22.754Z,17.63
2022-09-23T21:13:52.371Z,19.23
2022-09-23T21:16:22.932Z,20.43
2022-09-23T21:18:51.598Z,13.20
2022-09-23T21:21:22.067Z,11.83
2022-09-23T21:23:50.841Z,12.37
2022-09-23T21:26:20.145Z,15.20
2022-09-23T21:28:49.483Z,17.90
2022-09-23T21:31:23.838Z,22.73
2022-09-23T21:33:56.936Z,22.83
2022-09-23T21:36:24.906Z,24.63
2022-09-23T21:38:53.160Z,15.10
2022-09-23T21:41:21.217Z,19.53
2022-09-23T21:43:49.479Z,22.37
2022-09-23T21:46:19.984Z,19.00
2022-09-23T21:48:49.783Z,19.13
2022-09-23T21:51:21.376Z,15.33
2022-09-23T21:53:48.989Z,16.07
2022-09-23T21:56:20.894Z,17.83
2022-09-23T21:58:49.445Z,15.10
2022-09-23T22:01:18.887Z,16.27
2022-09-23T22:03:51.757Z,18.53
2022-09-23T22:06:22.499Z,20.87
2022-09-23T22:08:51.795Z,20.63
2022-09-23T22:11:39.663Z,22.40
2022-09-23T22:14:08.618Z,23.80
2022-09-23T22:16:36.821Z,18.37
2022-09-23T22:19:06.841Z,22.30
2022-09-23T22:21:38.009Z,17.87
2022-09-23T22:24:07.707Z,15.80
2022-09-23T22:26:38.680Z,15.00
2022-09-23T22:29:25.414Z,21.63
2022-09-23T22:32:11.127Z,27.57
2022-09-23T22:34:50.582Z,26.30
2022-09-23T22:37:23.096Z,22.37
2022-09-23T22:39:50.530Z,20.27
2022-09-23T22:42:21.088Z,17.47
2022-09-23T22:44:48.637Z,14.53
2022-09-23T22:47:17.512Z,13.57
2022-09-23T22:49:44.958Z,16.27
2022-09-23T22:52:12.517Z,13.23
2022-09-23T22:54:41.450Z,17.83
2022-09-23T22:57:09.788Z,18.30
2022-09-23T22:59:38.147Z,14.20
2022-09-23T23:02:06.513Z,16.33
2022-09-23T23:04:34.427Z,16.20
2022-09-23T23:07:03.089Z,15.17
2022-09-23T23:09:31.109Z,16.10
2022-09-23T23:11:59.877Z,14.83
2022-09-23T23:14:27.896Z,14.77
2022-09-23T23:16:55.371Z,16.13
2022-09-23T23:19:23.553Z,20.43
2022-09-23T23:21:51.729Z,25.87
2022-09-23T23:24:21.194Z,17.70
2022-09-23T23:26:49.491Z,16.10
2022-09-23T23:29:20.834Z,17.37
2022-09-23T23:31:48.934Z,15.67
2022-09-23T23:34:18.561Z,17.50
2022-09-23T23:36:47.052Z,15.80
2022-09-23T23:39:15.276Z,12.87
2022-09-23T23:41:42.879Z,14.43
2022-09-23T23:44:12.891Z,14.67
2022-09-23T23:46:41.862Z,17.67
2022-09-23T23:49:09.353Z,17.53
2022-09-23T23:51:36.806Z,14.57
2022-09-23T23:54:04.555Z,12.50
2022-09-23T23:56:32.247Z,16.23
2022-09-23T23:59:02.454Z,15.17
